sensor_id;sensor_type;location;lat;lon;timestamp;temperature;humidity
52044;DHT22;38053;53.100;6.078;2023-01-15T00:00:59;6.00;99.90
52044;DHT22;38053;53.100;6.078;2023-01-15T00:03:25;6.10;99.90
52044;DHT22;38053;53.100;6.078;2023-01-15T00:05:51;6.10;99.90
52044;DHT22;38053;53.100;6.078;2023-01-15T00:08:17;6.10;99.90
52044;DHT22;38053;53.100;6.078;2023-01-15T00:10:42;6.10;99.90
52044;DHT22;38053;53.100;6.078;2023-01-15T00:13:08;6.10;99.90
52044;DHT22;38053;53.100;6.078;2023-01-15T00:15:34;6.10;99.90
52044;DHT22;38053;53.100;6.078;2023-01-15T00:18:00;6.10;99.90
52044;DHT22;38053;53.100;6.078;2023-01-15T00:20:26;6.10;99.90
52044;DHT22;38053;53.100;6.078;2023-01-15T00:22:52;6.10;99.90
52044;DHT22;38053;53.100;6.078;2023-01-15T00:25:18;6.10;99.90
52044;DHT22;38053;53.100;6.078;2023-01-15T00:28:02;6.10;99.90
52044;DHT22;38053;53.100;6.078;2023-01-15T00:30:28;6.10;99.90
52044;DHT22;38053;53.100;6.078;2023-01-15T00:32:54;6.10;99.90
52044;DHT22;38053;53.100;6.078;2023-01-15T00:35:21;6.10;99.90
52044;DHT22;38053;53.100;6.078;2023-01-15T00:37:47;6.10;99.90
52044;DHT22;38053;53.100;6.078;2023-01-15T00:40:14;6.10;99.90
52044;DHT22;38053;53.100;6.078;2023-01-15T00:42:40;6.10;99.90
52044;DHT22;38053;53.100;6.078;2023-01-15T00:45:07;6.10;99.90
52044;DHT22;38053;53.100;6.078;2023-01-15T00:50:03;6.10;99.90
52044;DHT22;38053;53.100;6.078;2023-01-15T00:52:30;6.10;99.90
52044;DHT22;38053;53.100;6.078;2023-01-15T00:54:56;6.10;99.90
52044;DHT22;38053;53.100;6.078;2023-01-15T00:57:21;6.10;99.90
52044;DHT22;38053;53.100;6.078;2023-01-15T00:59:47;6.10;99.90
52044;DHT22;38053;53.100;6.078;2023-01-15T01:02:12;6.10;99.90
52044;DHT22;38053;53.100;6.078;2023-01-15T01:04:38;6.10;99.90
52044;DHT22;38053;53.100;6.078;2023-01-15T01:07:04;6.10;99.90
52044;DHT22;38053;53.100;6.078;2023-01-15T01:09:30;6.10;99.90
52044;DHT22;38053;53.100;6.078;2023-01-15T01:11:55;6.10;99.90
52044;DHT22;38053;53.100;6.078;2023-01-15T01:14:21;6.10;99.90
52044;DHT22;38053;53.100;6.078;2023-01-15T01:16:47;6.10;99.90
52044;DHT22;38053;53.100;6.078;2023-01-15T01:19:23;6.10;99.90
52044;DHT22;38053;53.100;6.078;2023-01-15T01:21:50;6.10;99.90
52044;DHT22;38053;53.100;6.078;2023-01-15T01:24:18;6.00;99.90
52044;DHT22;38053;53.100;6.078;2023-01-15T01:26:45;6.00;99.90
52044;DHT22;38053;53.100;6.078;2023-01-15T01:29:13;5.90;99.90
52044;DHT22;38053;53.100;6.078;2023-01-15T01:31:39;6.00;99.90
52044;DHT22;38053;53.100;6.078;2023-01-15T01:34:05;6.00;99.90
52044;DHT22;38053;53.100;6.078;2023-01-15T01:36:34;5.90;99.90
52044;DHT22;38053;53.100;6.078;2023-01-15T01:39:00;5.90;99.90
52044;DHT22;38053;53.100;6.078;2023-01-15T01:41:27;5.90;99.90
52044;DHT22;38053;53.100;6.078;2023-01-15T01:44:05;5.90;99.90
52044;DHT22;38053;53.100;6.078;2023-01-15T01:46:33;5.90;99.90
52044;DHT22;38053;53.100;6.078;2023-01-15T01:49:04;6.00;99.90
52044;DHT22;38053;53.100;6.078;2023-01-15T01:51:34;6.00;99.90
52044;DHT22;38053;53.100;6.078;2023-01-15T01:54:02;5.90;99.90
52044;DHT22;38053;53.100;6.078;2023-01-15T01:56:28;5.90;99.90
52044;DHT22;38053;53.100;6.078;2023-01-15T01:58:55;6.00;99.90
52044;DHT22;38053;53.100;6.078;2023-01-15T02:01:23;5.90;99.90
52044;DHT22;38053;53.100;6.078;2023-01-15T02:03:49;5.90;99.90
52044;DHT22;38053;53.100;6.078;2023-01-15T02:06:15;5.90;99.90
52044;DHT22;38053;53.100;6.078;2023-01-15T02:08:41;5.90;99.90
52044;DHT22;38053;53.100;6.078;2023-01-15T02:11:13;5.90;99.90
52044;DHT22;38053;53.100;6.078;2023-01-15T02:16:15;5.90;99.90
52044;DHT22;38053;53.100;6.078;2023-01-15T02:21:18;5.90;99.90
52044;DHT22;38053;53.100;6.078;2023-01-15T02:24:13;5.90;99.90
52044;DHT22;38053;53.100;6.078;2023-01-15T02:29:12;5.90;99.90
52044;DHT22;38053;53.100;6.078;2023-01-15T02:31:42;5.80;99.90
52044;DHT22;38053;53.100;6.078;2023-01-15T02:34:24;5.80;99.90
52044;DHT22;38053;53.100;6.078;2023-01-15T02:37:01;5.80;99.90
52044;DHT22;38053;53.100;6.078;2023-01-15T02:39:29;5.80;99.90
52044;DHT22;38053;53.100;6.078;2023-01-15T02:41:59;5.80;99.90
52044;DHT22;38053;53.100;6.078;2023-01-15T02:44:27;5.80;99.90
52044;DHT22;38053;53.100;6.078;2023-01-15T02:46:55;5.80;99.90
52044;DHT22;38053;53.100;6.078;2023-01-15T02:49:23;5.80;99.90
52044;DHT22;38053;53.100;6.078;2023-01-15T02:54:25;5.80;99.90
52044;DHT22;38053;53.100;6.078;2023-01-15T02:56:54;5.90;99.90
52044;DHT22;38053;53.100;6.078;2023-01-15T02:59:26;5.90;99.90
52044;DHT22;38053;53.100;6.078;2023-01-15T03:02:00;5.90;99.90
52044;DHT22;38053;53.100;6.078;2023-01-15T03:04:31;5.90;99.90
52044;DHT22;38053;53.100;6.078;2023-01-15T03:07:18;6.00;99.90
52044;DHT22;38053;53.100;6.078;2023-01-15T03:09:47;6.00;99.90
52044;DHT22;38053;53.100;6.078;2023-01-15T03:12:53;5.90;99.90
52044;DHT22;38053;53.100;6.078;2023-01-15T03:18:57;5.80;99.90
52044;DHT22;38053;53.100;6.078;2023-01-15T03:22:18;5.80;99.90
52044;DHT22;38053;53.100;6.078;2023-01-15T03:24:41;5.80;99.90
52044;DHT22;38053;53.100;6.078;2023-01-15T03:27:09;5.90;99.90
52044;DHT22;38053;53.100;6.078;2023-01-15T03:29:38;5.90;99.90
52044;DHT22;38053;53.100;6.078;2023-01-15T03:32:05;5.90;99.90
52044;DHT22;38053;53.100;6.078;2023-01-15T03:34:37;5.90;99.90
52044;DHT22;38053;53.100;6.078;2023-01-15T03:37:04;5.80;99.90
52044;DHT22;38053;53.100;6.078;2023-01-15T03:39:30;5.80;99.90
52044;DHT22;38053;53.100;6.078;2023-01-15T03:50:26;5.80;99.90
52044;DHT22;38053;53.100;6.078;2023-01-15T03:53:12;5.70;99.90
52044;DHT22;38053;53.100;6.078;2023-01-15T03:56:03;5.70;99.90
52044;DHT22;38053;53.100;6.078;2023-01-15T03:58:40;5.70;99.90
52044;DHT22;38053;53.100;6.078;2023-01-15T04:01:10;5.70;99.90
52044;DHT22;38053;53.100;6.078;2023-01-15T04:03:38;5.70;99.90
52044;DHT22;38053;53.100;6.078;2023-01-15T04:06:04;5.70;99.90
52044;DHT22;38053;53.100;6.078;2023-01-15T04:08:36;5.70;99.90
52044;DHT22;38053;53.100;6.078;2023-01-15T04:11:03;5.70;99.90
52044;DHT22;38053;53.100;6.078;2023-01-15T04:13:29;5.70;99.90
52044;DHT22;38053;53.100;6.078;2023-01-15T04:15:55;5.70;99.90
52044;DHT22;38053;53.100;6.078;2023-01-15T04:18:20;5.60;99.90
52044;DHT22;38053;53.100;6.078;2023-01-15T04:20:46;5.60;99.90
52044;DHT22;38053;53.100;6.078;2023-01-15T04:23:13;5.60;99.90
52044;DHT22;38053;53.100;6.078;2023-01-15T04:25:38;5.60;99.90
52044;DHT22;38053;53.100;6.078;2023-01-15T04:28:06;5.60;99.90
52044;DHT22;38053;53.100;6.078;2023-01-15T04:30:32;5.60;99.90
52044;DHT22;38053;53.100;6.078;2023-01-15T04:32:58;5.60;99.90
52044;DHT22;38053;53.100;6.078;2023-01-15T04:35:24;5.60;99.90
52044;DHT22;38053;53.100;6.078;2023-01-15T04:37:54;5.60;99.90
52044;DHT22;38053;53.100;6.078;2023-01-15T04:40:20;5.60;99.90
52044;DHT22;38053;53.100;6.078;2023-01-15T04:43:04;5.60;99.90
52044;DHT22;38053;53.100;6.078;2023-01-15T04:45:48;5.60;99.90
52044;DHT22;38053;53.100;6.078;2023-01-15T04:48:14;5.60;99.90
52044;DHT22;38053;53.100;6.078;2023-01-15T04:50:39;5.60;99.90
52044;DHT22;38053;53.100;6.078;2023-01-15T04:53:05;5.50;99.90
52044;DHT22;38053;53.100;6.078;2023-01-15T04:55:31;5.40;99.90
52044;DHT22;38053;53.100;6.078;2023-01-15T04:57:57;5.40;99.90
52044;DHT22;38053;53.100;6.078;2023-01-15T05:00:22;5.30;99.90
52044;DHT22;38053;53.100;6.078;2023-01-15T05:02:48;5.30;99.90
52044;DHT22;38053;53.100;6.078;2023-01-15T05:05:15;5.30;99.90
52044;DHT22;38053;53.100;6.078;2023-01-15T05:07:40;5.30;99.90
52044;DHT22;38053;53.100;6.078;2023-01-15T05:10:07;5.30;99.90
52044;DHT22;38053;53.100;6.078;2023-01-15T05:12:33;5.30;99.90
52044;DHT22;38053;53.100;6.078;2023-01-15T05:14:58;5.20;99.90
52044;DHT22;38053;53.100;6.078;2023-01-15T05:17:24;5.20;99.90
52044;DHT22;38053;53.100;6.078;2023-01-15T05:19:50;5.20;99.90
52044;DHT22;38053;53.100;6.078;2023-01-15T05:22:15;5.20;99.90
52044;DHT22;38053;53.100;6.078;2023-01-15T05:24:41;5.10;99.90
52044;DHT22;38053;53.100;6.078;2023-01-15T05:27:07;5.10;99.90
52044;DHT22;38053;53.100;6.078;2023-01-15T05:29:32;5.10;99.90
52044;DHT22;38053;53.100;6.078;2023-01-15T05:31:58;5.10;99.90
52044;DHT22;38053;53.100;6.078;2023-01-15T05:34:24;5.10;99.90
52044;DHT22;38053;53.100;6.078;2023-01-15T05:36:49;5.00;99.90
52044;DHT22;38053;53.100;6.078;2023-01-15T05:39:15;5.00;99.90
52044;DHT22;38053;53.100;6.078;2023-01-15T05:41:41;5.00;99.90
52044;DHT22;38053;53.100;6.078;2023-01-15T05:44:28;4.90;99.90
52044;DHT22;38053;53.100;6.078;2023-01-15T05:47:00;5.00;99.90
52044;DHT22;38053;53.100;6.078;2023-01-15T05:49:28;4.90;99.90
52044;DHT22;38053;53.100;6.078;2023-01-15T05:51:56;4.90;99.90
52044;DHT22;38053;53.100;6.078;2023-01-15T05:54:24;4.90;99.90
52044;DHT22;38053;53.100;6.078;2023-01-15T05:56:51;4.90;99.90
52044;DHT22;38053;53.100;6.078;2023-01-15T05:59:20;4.90;99.90
52044;DHT22;38053;53.100;6.078;2023-01-15T06:01:46;4.90;99.90
52044;DHT22;38053;53.100;6.078;2023-01-15T06:04:13;4.90;99.90
52044;DHT22;38053;53.100;6.078;2023-01-15T06:06:40;4.90;99.90
52044;DHT22;38053;53.100;6.078;2023-01-15T06:09:06;4.90;99.90
52044;DHT22;38053;53.100;6.078;2023-01-15T06:11:32;5.00;99.90
52044;DHT22;38053;53.100;6.078;2023-01-15T06:13:58;4.90;99.90
52044;DHT22;38053;53.100;6.078;2023-01-15T06:16:24;4.90;99.90
52044;DHT22;38053;53.100;6.078;2023-01-15T06:18:49;4.90;99.90
52044;DHT22;38053;53.100;6.078;2023-01-15T06:21:16;5.00;99.90
52044;DHT22;38053;53.100;6.078;2023-01-15T06:23:42;5.00;99.90
52044;DHT22;38053;53.100;6.078;2023-01-15T06:26:14;5.00;99.90
52044;DHT22;38053;53.100;6.078;2023-01-15T06:28:41;5.00;99.90
52044;DHT22;38053;53.100;6.078;2023-01-15T06:31:10;4.90;99.90
52044;DHT22;38053;53.100;6.078;2023-01-15T06:33:36;5.00;99.90
52044;DHT22;38053;53.100;6.078;2023-01-15T06:36:07;5.00;99.90
52044;DHT22;38053;53.100;6.078;2023-01-15T06:38:33;4.90;99.90
52044;DHT22;38053;53.100;6.078;2023-01-15T06:41:04;5.00;99.90
52044;DHT22;38053;53.100;6.078;2023-01-15T06:43:50;4.90;99.90
52044;DHT22;38053;53.100;6.078;2023-01-15T06:46:34;4.90;99.90
52044;DHT22;38053;53.100;6.078;2023-01-15T06:49:18;4.90;99.90
52044;DHT22;38053;53.100;6.078;2023-01-15T06:51:44;5.00;99.90
52044;DHT22;38053;53.100;6.078;2023-01-15T06:54:09;5.00;99.90
52044;DHT22;38053;53.100;6.078;2023-01-15T06:56:35;4.90;99.90
52044;DHT22;38053;53.100;6.078;2023-01-15T06:59:00;4.90;99.90
52044;DHT22;38053;53.100;6.078;2023-01-15T07:01:26;4.90;99.90
52044;DHT22;38053;53.100;6.078;2023-01-15T07:03:55;4.90;99.90
52044;DHT22;38053;53.100;6.078;2023-01-15T07:06:21;4.90;99.90
52044;DHT22;38053;53.100;6.078;2023-01-15T07:08:47;4.90;99.90
52044;DHT22;38053;53.100;6.078;2023-01-15T07:11:12;4.90;99.90
52044;DHT22;38053;53.100;6.078;2023-01-15T07:13:38;4.90;99.90
52044;DHT22;38053;53.100;6.078;2023-01-15T07:16:04;5.00;99.90
52044;DHT22;38053;53.100;6.078;2023-01-15T07:18:32;5.00;99.90
52044;DHT22;38053;53.100;6.078;2023-01-15T07:20:58;5.00;99.90
52044;DHT22;38053;53.100;6.078;2023-01-15T07:23:25;5.00;99.90
52044;DHT22;38053;53.100;6.078;2023-01-15T07:25:52;5.10;99.90
52044;DHT22;38053;53.100;6.078;2023-01-15T07:28:19;5.10;99.90
52044;DHT22;38053;53.100;6.078;2023-01-15T07:30:45;5.10;99.90
52044;DHT22;38053;53.100;6.078;2023-01-15T07:33:11;5.10;99.90
52044;DHT22;38053;53.100;6.078;2023-01-15T07:35:37;5.10;99.90
52044;DHT22;38053;53.100;6.078;2023-01-15T07:38:03;5.00;99.90
52044;DHT22;38053;53.100;6.078;2023-01-15T07:40:29;5.00;99.90
52044;DHT22;38053;53.100;6.078;2023-01-15T07:42:55;5.00;99.90
52044;DHT22;38053;53.100;6.078;2023-01-15T07:45:39;5.00;99.90
52044;DHT22;38053;53.100;6.078;2023-01-15T07:48:25;5.00;99.90
52044;DHT22;38053;53.100;6.078;2023-01-15T07:51:10;5.00;99.90
52044;DHT22;38053;53.100;6.078;2023-01-15T07:53:35;5.00;99.90
52044;DHT22;38053;53.100;6.078;2023-01-15T07:56:01;5.10;99.90
52044;DHT22;38053;53.100;6.078;2023-01-15T07:58:27;5.10;99.90
52044;DHT22;38053;53.100;6.078;2023-01-15T08:00:52;5.10;99.90
52044;DHT22;38053;53.100;6.078;2023-01-15T08:03:18;5.10;99.90
52044;DHT22;38053;53.100;6.078;2023-01-15T08:05:44;5.10;99.90
52044;DHT22;38053;53.100;6.078;2023-01-15T08:08:16;5.10;99.90
52044;DHT22;38053;53.100;6.078;2023-01-15T08:10:43;5.20;99.90
52044;DHT22;38053;53.100;6.078;2023-01-15T08:13:28;5.20;99.90
52044;DHT22;38053;53.100;6.078;2023-01-15T08:16:12;5.20;99.90
52044;DHT22;38053;53.100;6.078;2023-01-15T08:18:38;5.10;99.90
52044;DHT22;38053;53.100;6.078;2023-01-15T08:21:04;5.10;99.90
52044;DHT22;38053;53.100;6.078;2023-01-15T08:23:30;5.00;99.90
52044;DHT22;38053;53.100;6.078;2023-01-15T08:25:59;5.00;99.90
52044;DHT22;38053;53.100;6.078;2023-01-15T08:28:25;5.00;99.90
52044;DHT22;38053;53.100;6.078;2023-01-15T08:30:51;5.00;99.90
52044;DHT22;38053;53.100;6.078;2023-01-15T08:33:17;5.10;99.90
52044;DHT22;38053;53.100;6.078;2023-01-15T08:35:43;5.10;99.90
52044;DHT22;38053;53.100;6.078;2023-01-15T08:38:08;5.00;99.90
52044;DHT22;38053;53.100;6.078;2023-01-15T08:40:35;5.00;99.90
52044;DHT22;38053;53.100;6.078;2023-01-15T08:43:21;4.90;99.90
52044;DHT22;38053;53.100;6.078;2023-01-15T08:45:47;4.70;99.90
52044;DHT22;38053;53.100;6.078;2023-01-15T08:48:12;4.60;99.90
52044;DHT22;38053;53.100;6.078;2023-01-15T08:50:38;4.50;99.90
52044;DHT22;38053;53.100;6.078;2023-01-15T08:53:04;4.40;99.90
52044;DHT22;38053;53.100;6.078;2023-01-15T08:55:29;4.40;99.90
52044;DHT22;38053;53.100;6.078;2023-01-15T08:57:55;4.40;99.90
52044;DHT22;38053;53.100;6.078;2023-01-15T09:00:21;4.40;99.90
52044;DHT22;38053;53.100;6.078;2023-01-15T09:02:46;4.50;99.90
52044;DHT22;38053;53.100;6.078;2023-01-15T09:05:12;4.60;99.90
52044;DHT22;38053;53.100;6.078;2023-01-15T09:07:38;4.60;99.90
52044;DHT22;38053;53.100;6.078;2023-01-15T09:10:04;4.70;99.90
52044;DHT22;38053;53.100;6.078;2023-01-15T09:12:29;4.80;99.90
52044;DHT22;38053;53.100;6.078;2023-01-15T09:14:55;4.80;99.90
52044;DHT22;38053;53.100;6.078;2023-01-15T09:17:21;4.90;99.90
52044;DHT22;38053;53.100;6.078;2023-01-15T09:19:47;5.00;99.90
52044;DHT22;38053;53.100;6.078;2023-01-15T09:22:12;5.10;99.90
52044;DHT22;38053;53.100;6.078;2023-01-15T09:24:38;5.20;99.90
52044;DHT22;38053;53.100;6.078;2023-01-15T09:27:04;5.30;99.90
52044;DHT22;38053;53.100;6.078;2023-01-15T09:29:29;5.30;99.90
52044;DHT22;38053;53.100;6.078;2023-01-15T09:31:55;5.40;99.90
52044;DHT22;38053;53.100;6.078;2023-01-15T09:34:21;5.40;99.90
52044;DHT22;38053;53.100;6.078;2023-01-15T09:36:47;5.50;99.90
52044;DHT22;38053;53.100;6.078;2023-01-15T09:39:12;5.50;99.90
52044;DHT22;38053;53.100;6.078;2023-01-15T09:44:53;5.70;99.90
52044;DHT22;38053;53.100;6.078;2023-01-15T09:53:55;5.90;99.90
52044;DHT22;38053;53.100;6.078;2023-01-15T09:56:27;6.00;99.90
52044;DHT22;38053;53.100;6.078;2023-01-15T09:58:55;6.00;99.90
52044;DHT22;38053;53.100;6.078;2023-01-15T10:01:26;6.00;99.90
52044;DHT22;38053;53.100;6.078;2023-01-15T10:04:05;6.10;99.90
52044;DHT22;38053;53.100;6.078;2023-01-15T10:06:48;6.10;99.90
52044;DHT22;38053;53.100;6.078;2023-01-15T10:09:16;6.20;99.90
52044;DHT22;38053;53.100;6.078;2023-01-15T10:11:55;6.30;99.90
52044;DHT22;38053;53.100;6.078;2023-01-15T10:14:53;6.40;99.90
52044;DHT22;38053;53.100;6.078;2023-01-15T10:17:38;6.50;99.90
52044;DHT22;38053;53.100;6.078;2023-01-15T10:26:25;6.70;99.90
52044;DHT22;38053;53.100;6.078;2023-01-15T10:31:53;6.50;99.90
52044;DHT22;38053;53.100;6.078;2023-01-15T10:34:31;6.50;99.90
52044;DHT22;38053;53.100;6.078;2023-01-15T10:39:35;6.40;99.90
52044;DHT22;38053;53.100;6.078;2023-01-15T10:45:23;6.40;99.90
52044;DHT22;38053;53.100;6.078;2023-01-15T10:50:40;6.40;99.90
52044;DHT22;38053;53.100;6.078;2023-01-15T10:53:21;6.40;99.90
52044;DHT22;38053;53.100;6.078;2023-01-15T10:55:54;6.40;99.90
52044;DHT22;38053;53.100;6.078;2023-01-15T11:01:37;6.80;99.90
52044;DHT22;38053;53.100;6.078;2023-01-15T11:04:04;7.00;99.90
52044;DHT22;38053;53.100;6.078;2023-01-15T11:06:31;7.10;99.90
52044;DHT22;38053;53.100;6.078;2023-01-15T11:08:57;7.30;99.90
52044;DHT22;38053;53.100;6.078;2023-01-15T11:17:21;7.20;99.90
52044;DHT22;38053;53.100;6.078;2023-01-15T11:22:41;7.10;99.90
52044;DHT22;38053;53.100;6.078;2023-01-15T11:25:07;7.00;99.90
52044;DHT22;38053;53.100;6.078;2023-01-15T11:27:36;7.00;99.90
52044;DHT22;38053;53.100;6.078;2023-01-15T11:30:05;7.00;99.90
52044;DHT22;38053;53.100;6.078;2023-01-15T11:32:54;7.00;99.90
52044;DHT22;38053;53.100;6.078;2023-01-15T11:35:21;6.90;99.90
52044;DHT22;38053;53.100;6.078;2023-01-15T11:37:46;6.90;99.90
52044;DHT22;38053;53.100;6.078;2023-01-15T11:40:17;6.90;99.90
52044;DHT22;38053;53.100;6.078;2023-01-15T11:42:47;6.90;99.90
52044;DHT22;38053;53.100;6.078;2023-01-15T11:46:18;6.90;99.90
52044;DHT22;38053;53.100;6.078;2023-01-15T11:49:08;6.90;99.90
52044;DHT22;38053;53.100;6.078;2023-01-15T11:51:52;6.90;99.90
52044;DHT22;38053;53.100;6.078;2023-01-15T11:54:20;6.90;99.90
52044;DHT22;38053;53.100;6.078;2023-01-15T11:56:46;6.90;99.90
52044;DHT22;38053;53.100;6.078;2023-01-15T11:59:15;6.90;99.90
52044;DHT22;38053;53.100;6.078;2023-01-15T12:01:55;7.00;99.90
52044;DHT22;38053;53.100;6.078;2023-01-15T12:04:36;6.90;99.90
52044;DHT22;38053;53.100;6.078;2023-01-15T12:07:05;6.90;99.90
52044;DHT22;38053;53.100;6.078;2023-01-15T12:21:35;6.80;99.90
52044;DHT22;38053;53.100;6.078;2023-01-15T12:27:42;6.30;99.90
52044;DHT22;38053;53.100;6.078;2023-01-15T12:32:51;5.30;99.90
52044;DHT22;38053;53.100;6.078;2023-01-15T12:35:32;5.10;99.90
52044;DHT22;38053;53.100;6.078;2023-01-15T12:38:55;5.00;99.90
52044;DHT22;38053;53.100;6.078;2023-01-15T12:41:08;4.90;99.90
52044;DHT22;38053;53.100;6.078;2023-01-15T12:43:36;4.80;99.90
52044;DHT22;38053;53.100;6.078;2023-01-15T12:46:26;4.80;99.90
52044;DHT22;38053;53.100;6.078;2023-01-15T12:49:29;4.80;99.90
52044;DHT22;38053;53.100;6.078;2023-01-15T12:52:08;4.70;99.90
52044;DHT22;38053;53.100;6.078;2023-01-15T12:57:34;4.70;99.90
52044;DHT22;38053;53.100;6.078;2023-01-15T13:05:40;4.80;99.90
52044;DHT22;38053;53.100;6.078;2023-01-15T13:10:44;4.80;99.90
52044;DHT22;38053;53.100;6.078;2023-01-15T13:13:28;4.80;99.90
52044;DHT22;38053;53.100;6.078;2023-01-15T13:15:57;4.80;99.90
52044;DHT22;38053;53.100;6.078;2023-01-15T13:18:29;4.80;99.90
52044;DHT22;38053;53.100;6.078;2023-01-15T13:20:57;4.80;99.90
52044;DHT22;38053;53.100;6.078;2023-01-15T13:29:22;4.90;99.90
52044;DHT22;38053;53.100;6.078;2023-01-15T13:37:07;5.00;99.90
52044;DHT22;38053;53.100;6.078;2023-01-15T13:39:38;5.00;99.90
52044;DHT22;38053;53.100;6.078;2023-01-15T13:42:24;5.00;99.90
52044;DHT22;38053;53.100;6.078;2023-01-15T13:44:56;5.10;99.90
52044;DHT22;38053;53.100;6.078;2023-01-15T13:47:28;5.10;99.90
52044;DHT22;38053;53.100;6.078;2023-01-15T13:50:04;5.10;99.90
52044;DHT22;38053;53.100;6.078;2023-01-15T13:52:35;5.10;99.90
52044;DHT22;38053;53.100;6.078;2023-01-15T13:57:42;5.20;99.90
52044;DHT22;38053;53.100;6.078;2023-01-15T14:03:21;5.30;99.90
52044;DHT22;38053;53.100;6.078;2023-01-15T14:05:54;5.30;99.90
52044;DHT22;38053;53.100;6.078;2023-01-15T14:08:27;5.30;99.90
52044;DHT22;38053;53.100;6.078;2023-01-15T14:10:53;5.40;99.90
52044;DHT22;38053;53.100;6.078;2023-01-15T14:16:14;5.40;99.90
52044;DHT22;38053;53.100;6.078;2023-01-15T14:30:02;5.60;99.90
52044;DHT22;38053;53.100;6.078;2023-01-15T14:35:26;5.60;99.90
52044;DHT22;38053;53.100;6.078;2023-01-15T14:37:56;5.60;99.90
52044;DHT22;38053;53.100;6.078;2023-01-15T14:40:27;5.60;99.90
52044;DHT22;38053;53.100;6.078;2023-01-15T14:42:56;5.60;99.90
52044;DHT22;38053;53.100;6.078;2023-01-15T14:48:05;5.60;99.90
52044;DHT22;38053;53.100;6.078;2023-01-15T14:50:41;5.70;99.90
52044;DHT22;38053;53.100;6.078;2023-01-15T14:55:50;5.70;99.90
52044;DHT22;38053;53.100;6.078;2023-01-15T14:58:36;5.70;99.90
52044;DHT22;38053;53.100;6.078;2023-01-15T15:06:54;5.70;99.90
52044;DHT22;38053;53.100;6.078;2023-01-15T15:09:32;5.70;99.90
52044;DHT22;38053;53.100;6.078;2023-01-15T15:15:09;5.70;99.90
52044;DHT22;38053;53.100;6.078;2023-01-15T15:18:22;5.70;99.90
52044;DHT22;38053;53.100;6.078;2023-01-15T15:21:28;5.70;99.90
52044;DHT22;38053;53.100;6.078;2023-01-15T15:23:58;5.60;99.90
52044;DHT22;38053;53.100;6.078;2023-01-15T15:31:24;5.60;99.90
52044;DHT22;38053;53.100;6.078;2023-01-15T15:33:53;5.60;99.90
52044;DHT22;38053;53.100;6.078;2023-01-15T15:36:19;5.60;99.90
52044;DHT22;38053;53.100;6.078;2023-01-15T15:38:53;5.60;99.90
52044;DHT22;38053;53.100;6.078;2023-01-15T15:41:21;5.60;99.90
52044;DHT22;38053;53.100;6.078;2023-01-15T15:44:15;5.60;99.90
52044;DHT22;38053;53.100;6.078;2023-01-15T15:47:19;5.60;99.90
52044;DHT22;38053;53.100;6.078;2023-01-15T15:50:04;5.60;99.90
52044;DHT22;38053;53.100;6.078;2023-01-15T15:52:32;5.50;99.90
52044;DHT22;38053;53.100;6.078;2023-01-15T15:54:59;5.50;99.90
52044;DHT22;38053;53.100;6.078;2023-01-15T15:57:26;5.40;99.90
52044;DHT22;38053;53.100;6.078;2023-01-15T15:59:53;5.40;99.90
52044;DHT22;38053;53.100;6.078;2023-01-15T16:02:38;5.40;99.90
52044;DHT22;38053;53.100;6.078;2023-01-15T16:05:35;5.40;99.90
52044;DHT22;38053;53.100;6.078;2023-01-15T16:08:28;5.40;99.90
52044;DHT22;38053;53.100;6.078;2023-01-15T16:11:00;5.30;99.90
52044;DHT22;38053;53.100;6.078;2023-01-15T16:13:34;5.30;99.90
52044;DHT22;38053;53.100;6.078;2023-01-15T16:16:01;5.30;99.90
52044;DHT22;38053;53.100;6.078;2023-01-15T16:18:37;5.30;99.90
52044;DHT22;38053;53.100;6.078;2023-01-15T16:21:07;5.30;99.90
52044;DHT22;38053;53.100;6.078;2023-01-15T16:23:33;5.30;99.90
52044;DHT22;38053;53.100;6.078;2023-01-15T16:26:00;5.30;99.90
52044;DHT22;38053;53.100;6.078;2023-01-15T16:28:35;5.20;99.90
52044;DHT22;38053;53.100;6.078;2023-01-15T16:31:03;5.30;99.90
52044;DHT22;38053;53.100;6.078;2023-01-15T16:33:29;5.30;99.90
52044;DHT22;38053;53.100;6.078;2023-01-15T16:35:58;5.30;99.90
52044;DHT22;38053;53.100;6.078;2023-01-15T16:38:25;5.30;99.90
52044;DHT22;38053;53.100;6.078;2023-01-15T16:40:51;5.30;99.90
52044;DHT22;38053;53.100;6.078;2023-01-15T16:43:22;5.30;99.90
52044;DHT22;38053;53.100;6.078;2023-01-15T16:45:56;5.30;99.90
52044;DHT22;38053;53.100;6.078;2023-01-15T16:48:24;5.30;99.90
52044;DHT22;38053;53.100;6.078;2023-01-15T16:50:51;5.30;99.90
52044;DHT22;38053;53.100;6.078;2023-01-15T16:53:31;5.30;99.90
52044;DHT22;38053;53.100;6.078;2023-01-15T16:56:01;5.30;99.90
52044;DHT22;38053;53.100;6.078;2023-01-15T16:58:35;5.30;99.90
52044;DHT22;38053;53.100;6.078;2023-01-15T17:01:38;5.20;99.90
52044;DHT22;38053;53.100;6.078;2023-01-15T17:04:35;5.20;99.90
52044;DHT22;38053;53.100;6.078;2023-01-15T17:09:43;5.20;99.90
52044;DHT22;38053;53.100;6.078;2023-01-15T17:14:54;5.20;99.90
52044;DHT22;38053;53.100;6.078;2023-01-15T17:17:24;5.20;99.90
52044;DHT22;38053;53.100;6.078;2023-01-15T17:19:54;5.20;99.90
52044;DHT22;38053;53.100;6.078;2023-01-15T17:22:28;5.20;99.90
52044;DHT22;38053;53.100;6.078;2023-01-15T17:24:57;5.30;99.90
52044;DHT22;38053;53.100;6.078;2023-01-15T17:27:24;5.30;99.90
52044;DHT22;38053;53.100;6.078;2023-01-15T17:29:50;5.30;99.90
52044;DHT22;38053;53.100;6.078;2023-01-15T17:32:23;5.30;99.90
52044;DHT22;38053;53.100;6.078;2023-01-15T17:34:50;5.30;99.90
52044;DHT22;38053;53.100;6.078;2023-01-15T17:37:15;5.20;99.90
52044;DHT22;38053;53.100;6.078;2023-01-15T17:39:41;5.30;99.90
52044;DHT22;38053;53.100;6.078;2023-01-15T17:42:15;5.30;99.90
52044;DHT22;38053;53.100;6.078;2023-01-15T17:44:41;5.30;99.90
52044;DHT22;38053;53.100;6.078;2023-01-15T17:47:07;5.40;99.90
52044;DHT22;38053;53.100;6.078;2023-01-15T17:49:33;5.40;99.90
52044;DHT22;38053;53.100;6.078;2023-01-15T17:52:00;5.40;99.90
52044;DHT22;38053;53.100;6.078;2023-01-15T17:54:26;5.40;99.90
52044;DHT22;38053;53.100;6.078;2023-01-15T17:57:10;5.30;99.90
52044;DHT22;38053;53.100;6.078;2023-01-15T17:59:55;5.30;99.90
52044;DHT22;38053;53.100;6.078;2023-01-15T18:02:40;5.30;99.90
52044;DHT22;38053;53.100;6.078;2023-01-15T18:05:24;5.30;99.90
52044;DHT22;38053;53.100;6.078;2023-01-15T18:07:54;5.30;99.90
52044;DHT22;38053;53.100;6.078;2023-01-15T18:10:24;5.30;99.90
52044;DHT22;38053;53.100;6.078;2023-01-15T18:12:49;5.30;99.90
52044;DHT22;38053;53.100;6.078;2023-01-15T18:15:16;5.30;99.90
52044;DHT22;38053;53.100;6.078;2023-01-15T18:17:42;5.20;99.90
52044;DHT22;38053;53.100;6.078;2023-01-15T18:20:09;5.20;99.90
52044;DHT22;38053;53.100;6.078;2023-01-15T18:22:35;5.20;99.90
52044;DHT22;38053;53.100;6.078;2023-01-15T18:25:00;5.10;99.90
52044;DHT22;38053;53.100;6.078;2023-01-15T18:27:26;5.10;99.90
52044;DHT22;38053;53.100;6.078;2023-01-15T18:29:58;5.10;99.90
52044;DHT22;38053;53.100;6.078;2023-01-15T18:32:27;5.10;99.90
52044;DHT22;38053;53.100;6.078;2023-01-15T18:34:54;5.00;99.90
52044;DHT22;38053;53.100;6.078;2023-01-15T18:37:19;5.00;99.90
52044;DHT22;38053;53.100;6.078;2023-01-15T18:39:45;5.00;99.90